createdAt,value
2016-04-20T08:26:58.453Z,16864
2016-04-20T08:27:58.675Z,18272
2016-04-20T08:28:58.880Z,19424
2016-04-20T08:29:58.680Z,19456
2016-04-20T08:30:58.917Z,19552
2016-04-20T08:31:58.716Z,20992
2016-04-20T08:32:58.891Z,22080
2016-04-20T08:33:59.097Z,22208
2016-04-20T08:34:58.709Z,23168
2016-04-20T08:35:58.696Z,21824
2016-04-20T08:36:58.699Z,20512
2016-04-20T08:37:58.685Z,21792
2016-04-20T08:38:58.892Z,21792
2016-04-20T08:39:58.707Z,20672
2016-04-20T08:40:58.726Z,21536
2016-04-20T08:41:58.446Z,22304
2016-04-20T08:42:58.621Z,22368
2016-04-20T08:44:58.737Z,18592
2016-04-20T08:45:58.786Z,17792
2016-04-20T08:47:12.820Z,18784
2016-04-20T08:48:13.245Z,21344
2016-04-20T08:48:59.591Z,20960
2016-04-20T08:49:58.984Z,22304
2016-04-20T08:50:59.393Z,21984
2016-04-20T08:51:58.958Z,21536
2016-04-20T08:52:58.273Z,20800
2016-04-20T08:53:58.761Z,22624
2016-04-20T08:54:58.763Z,21760
2016-04-20T08:55:58.781Z,20192
2016-04-20T08:56:58.768Z,17760
2016-04-20T08:57:58.990Z,18144
2016-04-20T08:58:58.789Z,20032
2016-04-20T08:59:58.777Z,22752
2016-04-20T09:00:58.811Z,23136
2016-04-20T09:01:58.813Z,21184
2016-04-20T09:02:58.816Z,21056
2016-04-20T09:03:59.037Z,21984
2016-04-20T09:04:59.290Z,23712
2016-04-20T09:05:58.854Z,23200
2016-04-20T09:06:58.827Z,21536
2016-04-20T09:07:58.845Z,19776
2016-04-20T09:08:58.848Z,20256
2016-04-20T09:09:59.116Z,22016
2016-04-20T09:10:58.916Z,21888
2016-04-20T09:11:58.856Z,22528
2016-04-20T09:13:13.390Z,25280
2016-04-20T09:13:59.018Z,22912
2016-04-20T09:14:59.114Z,20064
2016-04-20T09:15:58.882Z,20160
2016-04-20T09:16:58.869Z,22944
2016-04-20T09:17:58.418Z,23072
2016-04-20T09:18:58.937Z,22432
2016-04-20T09:19:58.846Z,22560
2016-04-20T09:20:58.848Z,20832
2016-04-20T09:21:58.982Z,21984
2016-04-20T09:22:58.916Z,24704
2016-04-20T09:23:58.934Z,25344
2016-04-20T09:24:58.952Z,26496
2016-04-20T09:25:59.158Z,24704
2016-04-20T09:26:59.176Z,23968
2016-04-20T09:27:58.976Z,24032
2016-04-20T09:28:59.182Z,24032
2016-04-20T09:29:58.982Z,22880
2016-04-20T09:30:58.968Z,23808
2016-04-20T09:31:59.205Z,24864
2016-04-20T09:32:59.020Z,24000
2016-04-20T09:33:59.242Z,23776
2016-04-20T09:34:58.995Z,23072
2016-04-20T09:35:59.200Z,21280
2016-04-20T09:37:13.109Z,21536
2016-04-20T09:37:59.002Z,21792
2016-04-20T09:38:59.256Z,22720
2016-04-20T09:39:59.023Z,23456
2016-04-20T09:40:59.276Z,22208
2016-04-20T09:41:59.045Z,21216
2016-04-20T09:43:13.547Z,21984
2016-04-20T09:43:59.237Z,22816
2016-04-20T09:44:59.521Z,21856
2016-04-20T09:45:58.805Z,21024
2016-04-20T09:46:59.105Z,22688
2016-04-20T09:47:59.061Z,25088
2016-04-20T09:48:59.298Z,23200
2016-04-20T09:49:59.753Z,23296
2016-04-20T09:50:59.319Z,23776
2016-04-20T09:52:13.196Z,21152
2016-04-20T09:52:59.355Z,19904
2016-04-20T09:54:13.452Z,18400
2016-04-20T09:54:59.330Z,17792
2016-04-20T09:56:13.426Z,18144
2016-04-20T09:56:59.132Z,18080
2016-04-20T09:57:59.369Z,14944
2016-04-20T09:58:59.590Z,13956
2016-04-20T09:59:58.655Z,16444
2016-04-20T10:00:59.782Z,20192
2016-04-20T10:01:59.864Z,22656
2016-04-20T10:03:13.335Z,26752
2016-04-20T10:03:59.197Z,27552
2016-04-20T10:04:59.606Z,27040
2016-04-20T10:06:12.812Z,28768
2016-04-20T10:06:59.392Z,28160
2016-04-20T10:07:59.880Z,24384
2016-04-20T10:08:59.414Z,21952
2016-04-20T10:09:59.651Z,19936
2016-04-20T10:10:59.279Z,18976
2016-04-20T10:11:59.469Z,15880
2016-04-20T10:13:13.940Z,16736
2016-04-20T10:13:59.272Z,19168
2016-04-20T10:15:13.540Z,22976
2016-04-20T10:15:59.495Z,24608
2016-04-20T10:18:13.361Z,24480
2016-04-20T10:18:59.316Z,22848
2016-04-20T10:21:28.072Z,25184
2016-04-20T10:22:13.386Z,26720
2016-04-20T10:23:14.233Z,27488
2016-04-20T10:24:13.658Z,28160
2016-04-20T10:24:59.832Z,27360
2016-04-20T10:25:59.538Z,25312
2016-04-20T10:27:59.621Z,25728
2016-04-20T10:28:59.358Z,24544
2016-04-20T10:29:59.799Z,24608
2016-04-20T10:30:59.426Z,25504
2016-04-20T10:31:59.648Z,26048
2016-04-20T10:32:59.838Z,26304
2016-04-20T10:33:59.622Z,24832
2016-04-20T10:34:59.391Z,24768
2016-04-20T10:36:00.659Z,26944
2016-04-20T10:36:59.442Z,25920
2016-04-20T10:37:59.445Z,25760
2016-04-20T10:38:59.432Z,23232
2016-04-20T10:39:59.434Z,21888
2016-04-20T10:41:00.204Z,19136
2016-04-20T10:41:59.987Z,13844
2016-04-20T10:43:00.178Z,10892
2016-04-20T10:43:59.789Z,10264
2016-04-20T10:45:15.792Z,11252
2016-04-20T10:47:14.064Z,15004
2016-04-20T10:47:59.722Z,15388
2016-04-20T10:49:01.147Z,17152
2016-04-20T10:50:00.008Z,23968
2016-04-20T10:50:59.699Z,26784
2016-04-20T10:52:14.061Z,27008
2016-04-20T10:53:00.235Z,26368
2016-04-20T10:53:59.754Z,26016
2016-04-20T10:55:00.382Z,23040
2016-04-20T10:56:00.353Z,20064
2016-04-20T10:57:00.871Z,19072
2016-04-20T10:58:00.874Z,15860
2016-04-20T10:59:00.407Z,13432
2016-04-20T11:00:00.145Z,17696
2016-04-20T11:01:00.382Z,22272
2016-04-20T11:01:59.604Z,24448
2016-04-20T11:02:59.591Z,24352
2016-04-20T11:04:00.234Z,21600
2016-04-20T11:05:00.768Z,19808
2016-04-20T11:06:01.426Z,18432
2016-04-20T11:07:01.023Z,20576
2016-04-20T11:08:00.323Z,24512
2016-04-20T11:08:59.638Z,26816
2016-04-20T11:09:59.687Z,27520
2016-04-20T11:11:01.737Z,25376
2016-04-20T11:12:00.506Z,24416
2016-04-20T11:12:59.665Z,23072
2016-04-20T11:13:59.870Z,23168
2016-04-20T11:15:13.982Z,19424
2016-04-20T11:15:59.797Z,16928
2016-04-20T11:17:01.237Z,11392
2016-04-20T11:18:00.615Z,8048
2016-04-20T11:19:00.165Z,7068
2016-04-20T11:19:59.606Z,7280
2016-04-20T11:21:00.373Z,6928
2016-04-20T11:21:59.955Z,6700
2016-04-20T11:23:00.191Z,7008
2016-04-20T11:24:01.147Z,7580
2016-04-20T11:24:59.963Z,8620
2016-04-20T11:25:59.808Z,9304
2016-04-20T11:27:00.999Z,9724
2016-04-20T11:28:59.832Z,9688
2016-04-20T11:30:00.304Z,11436
2016-04-20T11:31:00.229Z,12920
2016-04-20T11:31:59.857Z,12560
2016-04-20T11:33:01.078Z,9136
2016-04-20T11:34:00.674Z,6584
2016-04-20T11:35:02.052Z,6584
2016-04-20T11:36:04.226Z,6492
2016-04-20T11:37:00.479Z,6752
2016-04-20T11:37:59.873Z,7152
2016-04-20T11:38:59.876Z,7692
2016-04-20T11:40:00.049Z,8856
2016-04-20T11:41:00.256Z,9804
2016-04-20T11:42:00.289Z,9944
2016-04-20T11:43:00.089Z,10708
2016-04-20T11:43:59.903Z,12748
2016-04-20T11:45:00.142Z,12944
2016-04-20T11:45:59.940Z,11720
2016-04-20T11:47:00.114Z,11824
2016-04-20T11:48:00.743Z,10340
2016-04-20T11:49:15.277Z,7876
2016-04-20T11:50:14.451Z,6608
2016-04-20T11:51:01.001Z,6708
2016-04-20T11:52:00.160Z,7576
2016-04-20T11:52:59.975Z,8464
2016-04-20T11:54:13.978Z,7564
2016-04-20T11:55:01.589Z,7172
2016-04-20T11:56:15.342Z,7384
2016-04-20T11:57:00.423Z,7268
2016-04-20T11:58:00.269Z,7456
2016-04-20T11:59:00.414Z,6716
2016-04-20T12:00:00.275Z,6620
2016-04-20T12:01:02.106Z,7656
2016-04-20T12:02:14.108Z,8416
2016-04-20T12:03:00.017Z,8880
2016-04-20T12:04:00.035Z,8372
2016-04-20T12:05:00.492Z,9076
2016-04-20T12:06:00.323Z,8316
2016-04-20T12:07:00.263Z,7720
2016-04-20T12:08:00.249Z,7892
2016-04-20T12:09:00.065Z,7900
2016-04-20T12:10:00.083Z,7828
2016-04-20T12:11:00.804Z,8392
2016-04-20T12:12:00.152Z,9416
2016-04-20T12:13:00.326Z,11792
2016-04-20T12:14:00.188Z,13836
2016-04-20T12:15:00.081Z,13524
2016-04-20T12:16:00.520Z,14596
2016-04-20T12:17:14.446Z,17312
2016-04-20T12:18:00.137Z,17824
2016-04-20T12:19:00.108Z,17600
2016-04-20T12:20:01.142Z,19040
2016-04-20T12:21:01.206Z,22528
2016-04-20T12:22:00.162Z,24832
2016-04-20T12:22:59.697Z,25088
2016-04-20T12:24:00.011Z,21760
2016-04-20T12:25:01.436Z,20032
2016-04-20T12:26:14.751Z,18432
2016-04-20T12:27:00.425Z,17824
2016-04-20T12:28:00.225Z,16016
2016-04-20T12:28:59.744Z,15932
2016-04-20T12:30:00.449Z,19616
2016-04-20T12:31:00.453Z,22368
2016-04-20T12:32:00.454Z,20448
2016-04-20T12:33:00.082Z,18592
2016-04-20T12:34:00.429Z,18016
2016-04-20T12:35:14.369Z,16800
2016-04-20T12:36:00.169Z,16480
2016-04-20T12:37:00.297Z,15832
2016-04-20T12:38:00.471Z,15720
2016-04-20T12:39:00.552Z,16832
2016-04-20T12:40:14.415Z,18048
2016-04-20T12:41:00.543Z,19104
2016-04-20T12:42:14.607Z,21120
2016-04-20T12:43:00.328Z,21344
2016-04-20T12:44:14.409Z,19008
2016-04-20T12:45:00.553Z,17472
2016-04-20T12:46:14.446Z,19552
2016-04-20T12:47:00.371Z,21632
2016-04-20T12:48:00.107Z,21760
2016-04-20T12:48:59.939Z,20800
2016-04-20T12:50:00.581Z,19328
2016-04-20T12:51:00.615Z,19776
2016-04-20T12:54:00.623Z,17856
2016-04-20T12:55:00.642Z,18944
2016-04-20T12:56:00.473Z,19552
2016-04-20T12:57:00.678Z,21344
2016-04-20T12:58:00.478Z,20544
2016-04-20T12:59:00.481Z,17280
2016-04-20T13:00:00.483Z,13728
2016-04-20T13:01:00.516Z,13760
2016-04-20T13:02:00.504Z,16352
2016-04-20T13:03:00.555Z,17568
2016-04-20T13:04:00.791Z,16608
2016-04-20T13:05:00.560Z,14956
2016-04-20T13:06:00.640Z,13288
2016-04-20T13:07:00.768Z,12100
2016-04-20T13:08:00.958Z,12436
2016-04-20T13:09:14.680Z,14396
2016-04-20T13:10:02.510Z,15880
2016-04-20T13:11:00.809Z,17408
2016-04-20T13:12:00.843Z,17888
2016-04-20T13:13:00.612Z,15484
2016-04-20T13:14:01.099Z,12908
2016-04-20T13:15:00.649Z,12160
2016-04-20T13:17:00.685Z,12904
2016-04-20T13:18:00.751Z,13696
2016-04-20T13:19:14.972Z,14496
2016-04-20T13:20:01.115Z,14184
2016-04-20T13:21:15.087Z,13496
2016-04-20T13:22:15.214Z,16192
2016-04-20T13:23:00.717Z,18144
2016-04-20T13:24:01.203Z,18560
2016-04-20T13:25:01.394Z,16768
2016-04-20T13:26:00.834Z,15444
2016-04-20T13:27:14.837Z,12472
2016-04-20T13:28:15.090Z,9920
2016-04-20T13:29:01.217Z,8732
2016-04-20T13:30:14.861Z,8384
2016-04-20T13:31:00.972Z,8268
2016-04-20T13:32:00.773Z,8068
2016-04-20T13:33:00.822Z,8208
2016-04-20T13:34:00.825Z,10124
2016-04-20T13:35:01.077Z,10720
2016-04-20T13:36:15.252Z,11960
2016-04-20T13:37:00.754Z,10372
2016-04-20T13:38:00.867Z,9984
2016-04-20T13:39:00.854Z,9400
2016-04-20T13:40:00.888Z,9092
2016-04-20T13:41:00.875Z,9504
2016-04-20T13:42:00.893Z,10328
2016-04-20T13:43:01.270Z,10976
2016-04-20T13:44:14.524Z,10628
2016-04-20T13:45:15.385Z,10480
2016-04-20T13:46:01.138Z,10508
2016-04-20T13:47:01.140Z,10092
2016-04-20T13:48:00.941Z,9928
2016-04-20T13:49:00.490Z,10244
2016-04-20T13:50:01.024Z,10404
2016-04-20T13:51:01.026Z,10204
2016-04-20T13:52:00.984Z,9952
2016-04-20T13:53:01.017Z,10460
2016-04-20T13:54:01.191Z,9264
2016-04-20T13:55:01.178Z,8440
2016-04-20T13:56:02.025Z,8076
2016-04-20T13:57:00.542Z,7912
2016-04-20T13:58:01.031Z,7736
2016-04-20T13:59:01.095Z,7540
2016-04-20T14:00:01.286Z,7444
2016-04-20T14:01:01.054Z,7388
2016-04-20T14:02:01.260Z,7260
2016-04-20T14:03:01.091Z,7444
2016-04-20T14:04:01.561Z,7672
2016-04-20T14:05:01.080Z,7908
2016-04-20T14:06:01.020Z,8000
2016-04-20T14:07:14.711Z,7800
2016-04-20T14:08:15.244Z,8140
2016-04-20T14:09:15.232Z,9200
2016-04-20T14:10:01.188Z,9588
2016-04-20T14:11:01.409Z,10552
2016-04-20T14:12:15.302Z,11876
2016-04-20T14:13:01.180Z,12292
2016-04-20T14:14:01.418Z,11896
2016-04-20T14:15:01.451Z,10592
2016-04-20T14:16:00.716Z,9336
2016-04-20T14:17:01.409Z,8168
2016-04-20T14:18:01.662Z,6996
2016-04-20T14:19:01.243Z,6620
2016-04-20T14:20:01.465Z,6660
2016-04-20T14:21:01.764Z,6776
2016-04-20T14:22:01.549Z,6908
2016-04-20T14:23:01.455Z,6904
2016-04-20T14:24:01.301Z,7044
2016-04-20T14:25:15.369Z,7280
2016-04-20T14:26:15.591Z,7644
2016-04-20T14:27:15.406Z,8448
2016-04-20T14:28:01.703Z,9324
2016-04-20T14:29:02.143Z,10740
2016-04-20T14:30:01.552Z,11396
2016-04-20T14:31:15.464Z,11248
2016-04-20T14:32:01.714Z,10276
2016-04-20T14:33:01.747Z,8852
2016-04-20T14:34:00.875Z,7732
2016-04-20T14:35:01.643Z,7272
2016-04-20T14:36:01.803Z,7452
2016-04-20T14:37:01.367Z,7900
2016-04-20T14:39:01.420Z,9560
2016-04-20T14:40:15.691Z,9008
2016-04-20T14:41:01.425Z,8548
2016-04-20T14:42:01.834Z,7616
2016-04-20T14:43:01.431Z,7124
2016-04-20T14:44:01.449Z,7492
2016-04-20T14:45:01.655Z,8188
2016-04-20T14:46:01.470Z,8732
2016-04-20T14:47:15.757Z,9252
2016-04-20T14:48:01.475Z,9484
2016-04-20T14:49:01.494Z,8604
2016-04-20T14:50:01.684Z,7988
2016-04-20T14:51:01.499Z,7024
2016-04-20T14:52:01.502Z,7456
2016-04-20T14:53:01.520Z,7944
2016-04-20T14:54:01.523Z,8508
2016-04-20T14:55:01.588Z,8936
2016-04-20T14:56:01.591Z,8840
2016-04-20T14:57:01.562Z,8832
2016-04-20T14:58:01.596Z,9012
2016-04-20T14:59:01.771Z,9500
2016-04-20T15:00:01.821Z,10856
2016-04-20T15:01:01.823Z,11988
2016-04-20T15:02:01.607Z,12472
2016-04-20T15:03:01.625Z,12504
2016-04-20T15:04:01.628Z,12312
2016-04-20T15:05:01.864Z,11960
2016-04-20T15:06:01.883Z,10680
2016-04-20T15:07:01.651Z,9980
2016-04-20T15:08:01.732Z,10532
2016-04-20T15:09:01.939Z,11844
2016-04-20T15:10:01.660Z,12840
2016-04-20T15:11:01.912Z,13212
2016-04-20T15:12:15.792Z,13796
2016-04-20T15:13:15.827Z,14104
2016-04-20T15:14:01.717Z,14464
2016-04-20T15:15:15.847Z,13260
2016-04-20T15:16:01.753Z,12316
2016-04-20T15:17:01.944Z,11032
2016-04-20T15:18:01.962Z,10104
2016-04-20T15:19:01.777Z,8632
2016-04-20T15:20:01.764Z,8732
2016-04-20T15:21:01.830Z,8892
2016-04-20T15:22:01.785Z,8376
2016-04-20T15:23:02.444Z,7500
2016-04-20T15:24:02.057Z,6676
2016-04-20T15:25:01.840Z,7320
2016-04-20T15:26:02.468Z,8672
2016-04-20T15:27:01.830Z,10032
2016-04-20T15:28:16.180Z,10516
2016-04-20T15:29:02.461Z,10212
2016-04-20T15:30:01.885Z,10608
2016-04-20T15:31:01.873Z,10668
2016-04-20T15:32:02.109Z,10140
2016-04-20T15:34:02.131Z,7696
2016-04-20T15:35:01.414Z,6896
2016-04-20T15:36:01.922Z,6284
2016-04-20T15:37:01.611Z,6300
2016-04-20T15:38:02.145Z,6392
2016-04-20T15:39:02.164Z,5840
2016-04-20T15:40:02.166Z,5520
2016-04-20T15:41:01.951Z,5612
2016-04-20T15:42:01.985Z,5700
2016-04-20T15:43:01.972Z,5860
2016-04-20T15:44:01.991Z,5944
2016-04-20T15:45:02.197Z,6116
2016-04-20T15:46:02.199Z,6328
2016-04-20T15:47:02.202Z,6476
2016-04-20T15:48:02.205Z,6724
2016-04-20T15:49:01.989Z,6780
2016-04-20T15:50:02.210Z,6672
2016-04-20T15:51:02.494Z,6680
2016-04-20T15:52:02.699Z,6488
2016-04-20T15:53:02.249Z,6472
2016-04-20T15:54:02.471Z,6448
2016-04-20T15:55:02.066Z,6208
2016-04-20T15:56:02.085Z,5712
2016-04-20T15:57:01.821Z,5472
2016-04-20T15:58:02.340Z,5156
2016-04-20T15:59:02.146Z,4920
2016-04-20T16:00:02.205Z,4816
2016-04-20T16:01:02.422Z,4732
2016-04-20T16:02:02.294Z,4776
2016-04-20T16:03:02.312Z,4816
2016-04-20T16:04:02.583Z,4832
2016-04-20T16:05:02.637Z,4812
2016-04-20T16:06:52.941Z,4884
2016-04-20T16:07:05.738Z,4884
2016-04-20T16:08:05.691Z,4880
2016-04-20T16:09:05.589Z,4964
2016-04-20T16:10:05.942Z,5008
2016-04-20T16:11:04.980Z,4968
2016-04-20T16:12:20.052Z,4860
2016-04-20T16:13:06.152Z,4800
2016-04-20T16:14:05.750Z,4756
2016-04-20T16:15:05.755Z,4724
2016-04-20T16:16:05.979Z,4756
2016-04-20T16:17:06.013Z,4940
2016-04-20T16:18:06.003Z,5232
2016-04-20T16:19:05.819Z,5608
2016-04-20T16:20:07.072Z,6116
2016-04-20T16:21:20.108Z,6492
2016-04-20T16:22:06.048Z,6532
2016-04-20T16:23:06.068Z,6164
2016-04-20T16:24:06.038Z,5644
2016-04-20T16:25:20.557Z,4904
2016-04-20T16:26:06.263Z,4596
2016-04-20T16:27:05.844Z,4260
2016-04-20T16:28:05.597Z,4116
2016-04-20T16:29:06.085Z,4016
2016-04-20T16:30:06.291Z,4084
2016-04-20T16:31:05.934Z,4104
2016-04-20T16:32:05.905Z,4112
2016-04-20T16:33:05.893Z,4216
2016-04-20T16:34:05.738Z,4280
2016-04-20T16:35:06.132Z,4300
2016-04-20T16:36:06.119Z,4188
2016-04-20T16:37:20.246Z,4108
2016-04-20T16:38:05.437Z,4048
2016-04-20T16:39:05.955Z,3980
2016-04-20T16:40:05.958Z,3960
2016-04-20T16:41:05.960Z,3996
2016-04-20T16:42:05.979Z,4100
2016-04-20T16:43:05.998Z,4136
2016-04-20T16:44:06.015Z,4080
2016-04-20T16:45:06.581Z,4032
2016-04-20T16:46:06.193Z,3924
2016-04-20T16:47:06.008Z,3864
2016-04-20T16:48:05.979Z,3824
2016-04-20T16:49:06.248Z,3764
2016-04-20T16:50:06.032Z,3676
2016-04-20T16:51:20.082Z,3604
2016-04-20T16:52:06.006Z,3556
2016-04-20T16:53:05.993Z,3464
2016-04-20T16:54:06.011Z,3404
2016-04-20T16:56:06.236Z,3344
2016-04-20T16:58:06.053Z,3324
2016-04-20T16:59:06.166Z,3316
2016-04-20T17:00:06.262Z,3324
2016-04-20T17:01:06.077Z,3336
2016-04-20T17:02:06.252Z,3352
2016-04-20T17:03:06.066Z,3368
2016-04-20T17:04:05.897Z,3360
2016-04-20T17:05:05.885Z,3340
2016-04-20T17:06:06.060Z,3304
2016-04-20T17:07:06.265Z,3248
2016-04-20T17:08:06.362Z,3136
2016-04-20T17:09:06.099Z,3068
2016-04-20T17:10:06.304Z,2976
2016-04-20T17:11:06.088Z,2888
2016-04-20T17:12:06.107Z,2856
2016-04-20T17:13:05.797Z,2812
2016-04-20T17:14:05.362Z,2772
2016-04-20T17:15:06.146Z,2724
2016-04-20T17:16:06.305Z,2660
2016-04-20T17:17:06.137Z,2616
2016-04-20T17:18:06.342Z,2580
2016-04-20T17:19:20.219Z,2532
2016-04-20T17:20:05.659Z,2496
2016-04-20T17:21:06.334Z,2452
2016-04-20T17:22:06.150Z,2412
2016-04-20T17:23:06.387Z,2372
2016-04-20T17:24:06.389Z,2328
2016-04-20T17:25:05.673Z,2276
2016-04-20T17:26:06.364Z,2220
2016-04-20T17:27:06.209Z,2168
2016-04-20T17:28:06.180Z,2112
2016-04-20T17:29:06.168Z,2068
2016-04-20T17:30:20.468Z,2004
2016-04-20T17:31:06.267Z,1964
2016-04-20T17:32:06.566Z,1916
2016-04-20T17:33:06.195Z,1860
2016-04-20T17:34:06.682Z,1808
2016-04-20T17:35:06.935Z,1756
2016-04-20T17:36:06.219Z,1704
2016-04-20T17:37:06.440Z,1652
2016-04-20T17:38:05.896Z,1604
2016-04-20T17:39:06.445Z,1556
2016-04-20T17:40:08.307Z,1500
2016-04-20T17:41:07.154Z,1448
2016-04-20T17:42:06.422Z,1396
2016-04-20T17:43:06.519Z,1344
2016-04-20T17:44:06.240Z,1288
2016-04-20T17:45:06.227Z,1240
2016-04-20T17:46:06.261Z,1188
2016-04-20T17:47:06.263Z,1136
2016-04-20T17:48:06.485Z,1088
2016-04-20T17:49:06.268Z,1036
2016-04-20T17:50:20.351Z,976
2016-04-20T17:51:06.462Z,940
2016-04-20T17:52:06.496Z,896
2016-04-20T17:53:06.811Z,848
2016-04-20T17:54:23.038Z,788
2016-04-20T17:55:06.494Z,760
2016-04-20T17:56:06.293Z,712
2016-04-20T17:57:06.312Z,672
2016-04-20T17:58:06.284Z,628
2016-04-20T17:59:06.301Z,588
2016-04-20T18:00:06.476Z,548
2016-04-20T18:01:06.541Z,508
2016-04-20T18:02:06.544Z,476
2016-04-20T18:03:06.312Z,440
2016-04-20T18:04:06.346Z,408
2016-04-20T18:05:05.865Z,376
2016-04-20T18:06:06.336Z,344
2016-04-20T18:07:06.290Z,316
2016-04-20T18:08:06.355Z,292
2016-04-20T18:09:06.327Z,264
2016-04-20T18:10:06.501Z,240
2016-04-20T18:11:06.347Z,216
2016-04-20T18:12:06.335Z,196
2016-04-20T18:13:06.337Z,180
2016-04-20T18:14:06.527Z,160
2016-04-20T18:15:20.421Z,136
2016-04-20T18:16:06.377Z,128
2016-04-20T18:17:06.384Z,112
2016-04-20T18:18:20.621Z,96
2016-04-20T18:19:06.342Z,88
2016-04-20T18:20:06.578Z,76
2016-04-20T18:21:06.816Z,68
2016-04-20T18:22:06.401Z,60
2016-04-20T18:23:06.561Z,52
2016-04-20T18:24:06.345Z,44
2016-04-20T18:25:06.566Z,40
2016-04-20T18:26:06.349Z,36
2016-04-20T18:27:06.744Z,28
2016-04-20T18:28:20.636Z,24
2016-04-20T18:29:06.608Z,24
2016-04-20T18:30:06.377Z,16
2016-04-20T18:31:06.394Z,16
2016-04-20T18:32:06.600Z,12
2016-04-20T18:33:06.369Z,8
2016-04-20T18:34:06.371Z,12
2016-04-20T18:35:06.390Z,8
2016-04-20T18:37:06.817Z,8
2016-04-20T18:38:06.398Z,4
2016-04-20T18:39:20.479Z,4
2016-04-20T18:40:06.638Z,0
2016-04-20T18:41:06.813Z,4
2016-04-20T18:42:21.002Z,0
2016-04-20T18:43:06.412Z,0
2016-04-20T18:44:06.429Z,4
2016-04-20T18:45:06.432Z,4
2016-04-20T18:46:06.622Z,0
2016-04-20T18:47:06.641Z,0
2016-04-20T18:48:06.425Z,0
2016-04-20T18:50:06.445Z,0
2016-04-20T18:51:06.495Z,0
2016-04-20T18:52:06.294Z,0
2016-04-20T18:53:06.657Z,0
2016-04-20T18:54:06.425Z,0
2016-04-20T18:55:06.881Z,0
2016-04-20T18:56:06.900Z,0
2016-04-20T18:57:06.433Z,0
2016-04-20T18:58:06.889Z,0
2016-04-20T18:59:06.892Z,0
2016-04-20T19:00:06.441Z,0
2016-04-20T19:01:06.664Z,0
2016-04-20T19:02:06.494Z,0
2016-04-20T19:03:06.230Z,0
2016-04-20T19:04:07.186Z,0
2016-04-20T19:05:06.908Z,0
2016-04-20T19:06:06.849Z,0
2016-04-20T19:07:07.070Z,0
2016-04-20T19:08:07.118Z,0
2016-04-20T19:09:06.902Z,0
2016-04-20T19:10:07.015Z,0
2016-04-20T19:11:07.018Z,0
2016-04-20T19:12:07.098Z,0
2016-04-20T19:13:06.883Z,0
2016-04-20T19:14:06.901Z,0
2016-04-20T19:16:06.860Z,0
2016-04-20T19:17:06.878Z,0
2016-04-20T19:18:07.051Z,0
2016-04-20T19:19:07.367Z,0
2016-04-20T19:20:06.839Z,0
2016-04-20T19:21:06.670Z,0
2016-04-20T19:22:07.126Z,0
2016-04-20T19:24:06.553Z,0
2016-04-20T19:25:06.805Z,0
2016-04-20T19:26:06.902Z,0
2016-04-20T19:27:07.139Z,0
2016-04-20T19:28:06.923Z,0
2016-04-20T19:29:06.910Z,0
2016-04-20T19:30:07.694Z,0
2016-04-20T19:31:06.962Z,0
2016-04-20T19:32:05.730Z,0
2016-04-20T19:33:06.515Z,0
2016-04-20T19:34:06.002Z,0
2016-04-20T19:35:06.426Z,0
2016-04-20T19:36:20.600Z,0
2016-04-20T19:37:06.541Z,0
2016-04-20T19:38:06.168Z,0
2016-04-20T19:40:06.752Z,0
2016-04-20T19:41:06.739Z,0
2016-04-20T19:42:06.727Z,0
2016-04-20T19:43:06.510Z,0
2016-04-20T19:44:06.544Z,0
2016-04-20T19:45:06.562Z,0
2016-04-20T19:46:05.268Z,0
2016-04-20T19:47:06.505Z,0
2016-04-20T19:48:06.508Z,0
2016-04-20T19:49:06.729Z,0
2016-04-20T19:50:06.498Z,0
2016-04-20T19:51:06.938Z,0
2016-04-20T19:52:06.534Z,0
2016-04-20T19:53:06.506Z,0
2016-04-20T19:54:06.508Z,0
2016-04-20T19:56:20.811Z,0
2016-04-20T19:57:06.564Z,0
2016-04-20T19:58:06.534Z,0
2016-04-20T19:59:06.522Z,0
2016-04-20T20:00:06.540Z,0
2016-04-20T20:01:06.559Z,0
2016-04-20T20:02:06.530Z,0
2016-04-20T20:03:06.517Z,0
2016-04-20T20:04:06.519Z,0
2016-04-20T20:05:06.539Z,0
2016-04-20T20:06:06.525Z,0
2016-04-20T20:07:06.591Z,0
2016-04-20T20:08:06.515Z,0
2016-04-20T20:09:06.549Z,0
2016-04-20T20:10:06.566Z,0
2016-04-20T20:11:06.757Z,0
2016-04-20T20:12:06.542Z,0
2016-04-20T20:13:20.871Z,0
2016-04-20T20:14:21.640Z,0
2016-04-20T20:15:06.737Z,0
2016-04-20T20:16:20.646Z,0
2016-04-20T20:17:06.774Z,0
2016-04-20T20:18:06.557Z,0
2016-04-20T20:19:06.763Z,0
2016-04-20T20:20:06.548Z,0
2016-04-20T20:21:20.628Z,0
2016-04-20T20:22:06.625Z,0
2016-04-20T20:23:06.229Z,0
2016-04-20T20:24:06.811Z,0
2016-04-20T20:25:06.531Z,0
2016-04-20T20:26:06.534Z,0
2016-04-20T20:27:06.739Z,0
2016-04-20T20:28:06.525Z,0
2016-04-20T20:29:20.667Z,0
2016-04-20T20:30:06.544Z,0
2016-04-20T20:31:06.767Z,0
2016-04-20T20:32:06.535Z,0
2016-04-20T20:33:06.741Z,0
2016-04-20T20:34:05.977Z,0
2016-04-20T20:35:06.543Z,0
2016-04-20T20:36:20.843Z,0
2016-04-20T20:37:20.641Z,0
2016-04-20T20:38:06.786Z,0
2016-04-20T20:39:06.538Z,0
2016-04-20T20:40:06.540Z,0
2016-04-20T20:41:06.527Z,0
2016-04-20T20:42:06.530Z,0
2016-04-20T20:43:06.517Z,0
2016-04-20T20:44:06.754Z,0
2016-04-20T20:45:06.523Z,0
2016-04-20T20:46:06.556Z,0
2016-04-20T20:47:06.779Z,0
2016-04-20T20:48:06.531Z,0
2016-04-20T20:49:06.564Z,0
2016-04-20T20:50:06.381Z,0
2016-04-20T20:51:06.539Z,0
2016-04-20T20:52:06.978Z,0
2016-04-20T20:54:06.563Z,0
2016-04-20T20:55:06.581Z,0
2016-04-20T20:56:06.537Z,0
2016-04-20T20:57:06.586Z,0
2016-04-20T20:58:06.995Z,0
2016-04-20T20:59:06.763Z,0
2016-04-20T21:00:10.470Z,0
2016-04-20T21:01:20.848Z,0
2016-04-20T21:02:06.757Z,0
2016-04-20T21:03:06.556Z,0
2016-04-20T21:04:06.544Z,0
2016-04-20T21:05:20.640Z,0
2016-04-20T21:06:06.753Z,0
2016-04-20T21:07:06.567Z,0
2016-04-20T21:09:06.978Z,0
2016-04-20T21:10:06.575Z,0
2016-04-20T21:11:06.532Z,0
2016-04-20T21:12:06.533Z,0
2016-04-20T21:13:20.833Z,0
2016-04-20T21:14:06.758Z,0
2016-04-20T21:15:06.542Z,0
2016-04-20T21:16:06.764Z,0
2016-04-20T21:18:06.550Z,0
2016-04-20T21:19:06.084Z,0
2016-04-20T21:20:06.805Z,0
2016-04-20T21:21:06.777Z,0
2016-04-20T21:22:06.591Z,0
2016-04-20T21:23:06.579Z,0
2016-04-20T21:24:06.535Z,0
2016-04-20T21:25:06.944Z,0
2016-04-20T21:26:09.556Z,0
2016-04-20T21:27:06.762Z,0
2016-04-20T21:28:06.780Z,0
2016-04-20T21:29:06.565Z,0
2016-04-20T21:30:07.145Z,0
2016-04-20T21:32:06.385Z,0
2016-04-20T21:33:06.246Z,0
2016-04-20T21:34:06.328Z,0
2016-04-20T21:35:06.534Z,0
2016-04-20T21:36:06.583Z,0
2016-04-20T21:37:06.570Z,0
2016-04-20T21:38:06.573Z,0
2016-04-20T21:39:06.560Z,0
2016-04-20T21:42:06.974Z,0
2016-04-20T21:43:06.555Z,0
2016-04-20T21:44:07.776Z,0
2016-04-20T21:45:06.529Z,0
2016-04-20T21:46:06.938Z,0
2016-04-20T21:47:06.581Z,0
2016-04-20T21:48:06.521Z,0
2016-04-20T21:49:06.539Z,0
2016-04-20T21:50:06.527Z,0
2016-04-20T21:51:06.530Z,0
2016-04-20T21:52:06.548Z,0
2016-04-20T21:53:06.550Z,0
2016-04-20T21:54:06.757Z,0
2016-04-20T21:55:06.525Z,0
2016-04-20T21:56:06.527Z,0
2016-04-20T21:57:06.530Z,0
2016-04-20T21:58:06.563Z,0
2016-04-20T21:59:06.520Z,0
2016-04-20T22:00:06.179Z,0
2016-04-20T22:01:06.775Z,0
2016-04-20T22:02:06.513Z,0
2016-04-20T22:03:06.717Z,0
2016-04-20T22:04:06.534Z,0
2016-04-20T22:05:06.537Z,0
2016-04-20T22:06:34.726Z,0
2016-04-20T22:07:06.495Z,0
2016-04-20T22:08:06.528Z,0
2016-04-20T22:09:06.781Z,0
2016-04-20T22:10:06.518Z,0
2016-04-20T22:11:06.708Z,0
2016-04-20T22:12:06.742Z,0
2016-04-20T22:13:06.525Z,0
2016-04-20T22:14:06.967Z,0
2016-04-20T22:15:06.938Z,0
2016-04-20T22:16:06.534Z,0
2016-04-20T22:17:06.536Z,0
2016-04-20T22:18:06.540Z,0
2016-04-20T22:19:06.542Z,0
2016-04-20T22:20:06.530Z,0
2016-04-20T22:21:06.532Z,0
2016-04-20T22:22:06.207Z,0
2016-04-20T22:23:06.537Z,0
2016-04-20T22:24:06.946Z,0